Time;durP1;ratioP1;P1;durP2;ratioP2;P2;SDS_P1;SDS_P2;PMS_P1;PMS_P2;Temp;Humidity;BMP_temperature;BMP_pressure;BME280_temperature;BME280_humidity;BME280_pressure;Samples;Min_cycle;Max_cycle;Signal;HPM_P1;HPM_P2
2022/03/09 00:02:23;;;;;;;4.83;3.60;;;1.60;99.90;;;;;;5103535;28;20227;-48
2022/03/09 00:04:50;;;;;;;3.80;2.97;;;1.60;99.90;;;;;;5092692;28;20221;-44
2022/03/09 00:07:18;;;;;;;6.00;3.63;;;1.60;99.90;;;;;;5104216;28;20200;-47
2022/03/09 00:09:45;;;;;;;4.70;3.17;;;1.50;99.90;;;;;;5086871;28;20196;-45
2022/03/09 00:12:12;;;;;;;5.00;3.57;;;1.50;99.90;;;;;;5103903;28;20491;-51
2022/03/09 00:14:40;;;;;;;4.97;3.70;;;1.50;99.90;;;;;;5102324;28;20211;-49
2022/03/09 00:17:07;;;;;;;6.13;3.40;;;1.40;99.90;;;;;;5101690;28;20934;-45
2022/03/09 00:19:34;;;;;;;6.23;3.90;;;1.40;99.90;;;;;;5102929;28;20208;-50
2022/03/09 00:22:01;;;;;;;7.33;3.70;;;1.40;99.90;;;;;;5094488;27;20242;-48
2022/03/09 00:24:29;;;;;;;4.67;3.57;;;1.40;99.90;;;;;;5095175;28;20563;-53
2022/03/09 00:26:56;;;;;;;4.03;3.60;;;1.40;99.90;;;;;;5088453;28;20215;-48
2022/03/09 00:29:22;;;;;;;6.20;4.17;;;1.30;99.90;;;;;;5103223;28;20204;-47
2022/03/09 00:31:49;;;;;;;4.20;3.50;;;1.20;99.90;;;;;;5100074;28;20970;-46
2022/03/09 00:34:16;;;;;;;6.10;3.93;;;1.20;99.90;;;;;;5103043;28;20211;-49
2022/03/09 00:36:43;;;;;;;8.47;4.30;;;1.20;99.90;;;;;;5095014;28;20199;-49
2022/03/09 00:39:10;;;;;;;6.50;3.63;;;1.10;99.90;;;;;;5102562;28;20215;-45
2022/03/09 00:41:38;;;;;;;5.80;3.53;;;1.10;99.90;;;;;;5087414;28;20311;-49
2022/03/09 00:44:06;;;;;;;5.20;3.97;;;1.10;99.90;;;;;;5102514;28;20208;-45
2022/03/09 00:46:33;;;;;;;5.30;3.53;;;1.00;99.90;;;;;;5096851;28;20243;-44
2022/03/09 00:49:00;;;;;;;5.23;4.10;;;1.00;99.90;;;;;;5094880;28;20922;-45
2022/03/09 00:51:27;;;;;;;5.93;4.00;;;0.90;99.90;;;;;;5104140;28;20327;-47
2022/03/09 00:53:54;;;;;;;4.30;3.30;;;0.90;99.90;;;;;;5090566;28;20192;-44
2022/03/09 00:56:21;;;;;;;5.27;3.63;;;0.90;99.90;;;;;;5084128;28;20207;-45
2022/03/09 00:58:49;;;;;;;4.67;3.70;;;0.80;99.90;;;;;;5096935;28;20192;-48
2022/03/09 01:01:17;;;;;;;5.50;3.67;;;0.80;99.90;;;;;;5097746;28;20806;-45
2022/03/09 01:03:44;;;;;;;4.97;3.83;;;0.80;99.90;;;;;;5100235;28;20690;-44
2022/03/09 01:06:10;;;;;;;6.33;3.87;;;0.80;99.90;;;;;;5095269;28;20206;-44
2022/03/09 01:08:37;;;;;;;4.43;4.03;;;0.80;99.90;;;;;;5090695;28;20690;-50
2022/03/09 01:11:04;;;;;;;5.23;3.10;;;0.80;99.90;;;;;;5086955;28;20202;-45
2022/03/09 01:13:31;;;;;;;5.70;3.70;;;0.70;99.90;;;;;;5097587;28;20234;-52
2022/03/09 01:16:00;;;;;;;4.57;3.77;;;0.80;99.90;;;;;;5097614;28;20943;-44
2022/03/09 01:18:26;;;;;;;5.27;3.50;;;0.70;99.90;;;;;;5097771;28;20206;-44
2022/03/09 01:20:54;;;;;;;4.90;3.73;;;0.70;99.90;;;;;;5099141;28;20196;-43
2022/03/09 01:23:20;;;;;;;5.77;4.20;;;0.70;99.90;;;;;;5103416;28;20214;-44
2022/03/09 01:25:47;;;;;;;6.87;3.47;;;0.70;99.90;;;;;;5077905;28;20237;-46
2022/03/09 01:28:14;;;;;;;4.57;4.00;;;0.70;99.90;;;;;;5103018;28;20195;-46
2022/03/09 01:30:40;;;;;;;6.03;4.10;;;0.60;99.90;;;;;;5099942;28;20205;-43
2022/03/09 01:33:09;;;;;;;6.10;4.03;;;0.60;99.90;;;;;;5101628;28;20218;-43
2022/03/09 01:35:35;;;;;;;6.37;4.30;;;0.60;99.90;;;;;;5101637;28;20690;-45
2022/03/09 01:38:03;;;;;;;4.30;3.90;;;0.50;99.90;;;;;;5100328;28;20350;-48
2022/03/09 01:40:30;;;;;;;8.60;4.50;;;0.50;99.90;;;;;;5095391;28;20200;-49
2022/03/09 01:42:57;;;;;;;6.33;4.17;;;0.50;99.90;;;;;;5081504;28;20205;-44
2022/03/09 01:45:25;;;;;;;6.50;4.33;;;0.40;99.90;;;;;;5102818;28;20218;-46
2022/03/09 01:47:52;;;;;;;6.03;4.10;;;0.40;99.90;;;;;;5097854;28;20210;-45
2022/03/09 01:50:21;;;;;;;6.00;3.90;;;0.40;99.90;;;;;;5102962;28;20607;-46
2022/03/09 01:52:48;;;;;;;5.37;4.23;;;0.40;99.90;;;;;;5098802;28;20940;-47
2022/03/09 01:55:15;;;;;;;7.13;4.00;;;0.30;99.90;;;;;;5095882;28;20273;-43
2022/03/09 01:57:41;;;;;;;7.07;4.13;;;0.30;99.90;;;;;;5089553;28;20194;-49
2022/03/09 02:00:10;;;;;;;5.00;4.40;;;0.30;99.90;;;;;;5098583;28;20257;-44
2022/03/09 02:02:37;;;;;;;6.53;4.60;;;0.20;99.90;;;;;;5100884;28;20586;-46
2022/03/09 02:05:04;;;;;;;5.60;3.97;;;0.20;99.90;;;;;;5100930;28;20217;-42
2022/03/09 02:10:19;;;;;;;6.63;4.47;;;0.10;99.90;;;;;;5095573;28;20197;-45
2022/03/09 02:12:46;;;;;;;6.90;4.43;;;0.10;99.90;;;;;;5085557;28;20223;-49
2022/03/09 02:15:13;;;;;;;6.60;4.67;;;0.10;99.90;;;;;;5101615;28;20198;-48
2022/03/09 02:17:39;;;;;;;6.53;4.43;;;0.10;99.90;;;;;;5099172;28;20197;-50
2022/03/09 02:20:07;;;;;;;8.00;4.77;;;0.10;99.90;;;;;;5101747;28;20235;-46
2022/03/09 02:22:37;;;;;;;7.13;4.83;;;0.10;99.90;;;;;;5101674;28;20222;-52
2022/03/09 02:25:06;;;;;;;9.57;5.87;;;0.00;99.90;;;;;;5093326;28;20229;-48
2022/03/09 02:27:32;;;;;;;10.70;6.50;;;0.10;99.90;;;;;;5101316;28;20202;-51
2022/03/09 02:29:59;;;;;;;9.33;6.00;;;0.00;99.90;;;;;;5085200;28;20197;-53
2022/03/09 02:32:27;;;;;;;10.77;6.27;;;0.00;99.90;;;;;;5101480;28;20251;-46
2022/03/09 02:34:56;;;;;;;10.07;6.10;;;0.00;99.90;;;;;;5099451;28;20250;-44
2022/03/09 02:37:24;;;;;;;8.97;6.40;;;0.00;99.90;;;;;;5100940;28;20552;-47
2022/03/09 02:39:52;;;;;;;8.13;5.83;;;0.00;99.90;;;;;;5096515;28;20196;-47
2022/03/09 02:42:19;;;;;;;10.47;6.10;;;0.00;99.90;;;;;;5095813;28;20218;-48
2022/03/09 02:44:46;;;;;;;7.73;5.17;;;-0.10;99.90;;;;;;5088700;28;20729;-52
2022/03/09 02:47:13;;;;;;;9.17;6.03;;;0.00;99.90;;;;;;5101033;28;20617;-48
2022/03/09 02:49:40;;;;;;;8.87;5.70;;;-0.10;99.90;;;;;;5104096;28;20200;-50
2022/03/09 02:52:07;;;;;;;7.80;5.93;;;-0.10;99.90;;;;;;5104633;28;20221;-49
2022/03/09 02:54:34;;;;;;;6.30;4.77;;;-0.10;99.90;;;;;;5105086;28;20204;-50
2022/03/09 02:57:03;;;;;;;6.57;5.67;;;-0.10;99.90;;;;;;5096232;28;20219;-45
2022/03/09 02:59:30;;;;;;;9.27;5.80;;;-0.10;99.90;;;;;;5094066;28;20210;-47
2022/03/09 03:01:56;;;;;;;8.30;5.30;;;-0.10;99.90;;;;;;5087898;28;20210;-46
2022/03/09 03:04:23;;;;;;;7.73;5.43;;;-0.20;99.90;;;;;;5104027;28;20573;-49
2022/03/09 03:06:50;;;;;;;7.63;6.03;;;-0.30;99.90;;;;;;5099018;28;20198;-49
2022/03/09 03:09:17;;;;;;;10.60;6.30;;;-0.30;99.90;;;;;;5105787;28;20196;-46
2022/03/09 03:11:44;;;;;;;8.00;5.63;;;-0.30;99.90;;;;;;5101766;28;20296;-48
2022/03/09 03:14:12;;;;;;;8.60;6.43;;;-0.30;99.90;;;;;;5098431;28;20193;-49
2022/03/09 03:16:39;;;;;;;8.93;5.67;;;-0.30;99.90;;;;;;5086235;28;20212;-48
2022/03/09 03:19:06;;;;;;;8.83;4.77;;;-0.30;99.90;;;;;;5104194;28;20826;-46
2022/03/09 03:21:35;;;;;;;11.20;4.93;;;-0.40;99.90;;;;;;5101632;28;20586;-53
2022/03/09 03:24:01;;;;;;;8.73;5.03;;;-0.30;99.90;;;;;;5105032;28;20202;-48
2022/03/09 03:26:28;;;;;;;6.27;4.70;;;-0.30;99.90;;;;;;5103353;28;20201;-48
2022/03/09 03:28:55;;;;;;;5.40;4.23;;;-0.40;99.90;;;;;;5096951;28;20206;-48
2022/03/09 03:31:23;;;;;;;9.17;5.57;;;-0.40;99.90;;;;;;5099919;28;20679;-51
2022/03/09 03:33:50;;;;;;;5.47;4.10;;;-0.40;99.90;;;;;;5093636;28;20272;-47
2022/03/09 03:36:17;;;;;;;7.93;4.70;;;-0.40;99.90;;;;;;5104685;28;20197;-51
2022/03/09 03:38:45;;;;;;;5.13;4.13;;;-0.40;99.90;;;;;;5101567;28;20193;-49
2022/03/09 03:41:12;;;;;;;5.40;3.37;;;-0.50;99.90;;;;;;5105026;28;20559;-51
2022/03/09 03:43:38;;;;;;;5.33;3.33;;;-0.40;99.90;;;;;;5100432;28;20193;-47
2022/03/09 03:46:05;;;;;;;10.40;3.80;;;-0.30;99.90;;;;;;5096870;28;20694;-46
2022/03/09 03:48:33;;;;;;;4.43;3.57;;;-0.20;99.90;;;;;;5088269;28;20202;-48
2022/03/09 03:51:01;;;;;;;6.37;4.70;;;-0.20;99.90;;;;;;5103642;28;20202;-46
2022/03/09 03:53:28;;;;;;;6.70;4.17;;;-0.20;99.90;;;;;;5102523;28;20312;-49
2022/03/09 03:55:55;;;;;;;6.77;4.40;;;-0.20;99.90;;;;;;5102049;28;20188;-49
2022/03/09 03:58:22;;;;;;;5.97;4.13;;;-0.30;99.90;;;;;;5104295;28;20203;-49
2022/03/09 04:00:50;;;;;;;6.40;3.90;;;-0.30;99.90;;;;;;5095184;28;20827;-47
2022/03/09 04:03:17;;;;;;;6.90;4.13;;;-0.30;99.90;;;;;;5089938;28;20225;-44
2022/03/09 04:05:45;;;;;;;7.27;4.47;;;-0.30;99.90;;;;;;5096990;27;20358;-45
2022/03/09 04:08:12;;;;;;;7.23;4.07;;;-0.30;99.90;;;;;;5112841;27;20193;-49
2022/03/09 04:10:39;;;;;;;7.87;4.53;;;-0.30;99.90;;;;;;5094441;28;20211;-47
2022/03/09 04:13:05;;;;;;;9.13;5.03;;;-0.30;99.90;;;;;;5103525;27;20300;-44
2022/03/09 04:15:32;;;;;;;7.17;4.87;;;-0.40;99.90;;;;;;5101296;27;20198;-47
2022/03/09 04:18:00;;;;;;;7.07;4.40;;;-0.40;99.90;;;;;;5096370;28;20212;-50
2022/03/09 04:20:27;;;;;;;5.57;3.90;;;-0.40;99.90;;;;;;5086174;28;20211;-51
2022/03/09 04:22:55;;;;;;;5.83;3.30;;;-0.40;99.90;;;;;;5102321;28;20217;-50
2022/03/09 04:25:23;;;;;;;6.73;3.57;;;-0.40;99.90;;;;;;5096015;28;20214;-47
2022/03/09 04:27:50;;;;;;;7.77;4.73;;;-0.40;99.90;;;;;;5101073;28;20246;-45
2022/03/09 04:30:17;;;;;;;8.93;5.10;;;-0.40;99.90;;;;;;5103632;28;20193;-45
2022/03/09 04:32:44;;;;;;;9.83;4.63;;;-0.40;99.90;;;;;;5093378;28;20225;-45
2022/03/09 04:35:11;;;;;;;4.53;3.30;;;-0.40;99.90;;;;;;5089989;27;20661;-50
2022/03/09 04:37:38;;;;;;;4.27;3.80;;;-0.50;99.90;;;;;;5106850;27;20263;-48
2022/03/09 04:40:08;;;;;;;6.83;3.90;;;-0.50;99.90;;;;;;5097364;28;20213;-48
2022/03/09 04:42:35;;;;;;;5.60;4.20;;;-0.40;99.90;;;;;;5100499;28;20224;-50
2022/03/09 04:45:02;;;;;;;5.70;3.50;;;-0.40;99.90;;;;;;5102669;28;20237;-46
2022/03/09 04:47:29;;;;;;;5.17;4.40;;;-0.40;99.90;;;;;;5094574;27;20197;-53
2022/03/09 04:49:56;;;;;;;5.03;3.73;;;-0.40;99.90;;;;;;5086506;27;20213;-45
2022/03/09 04:52:23;;;;;;;6.13;3.93;;;-0.50;99.90;;;;;;5108328;27;20221;-52
2022/03/09 04:54:50;;;;;;;6.73;4.17;;;-0.50;99.90;;;;;;5090532;27;21244;-43
2022/03/09 04:57:18;;;;;;;4.57;4.00;;;-0.50;99.90;;;;;;5099941;27;20190;-42
2022/03/09 04:59:45;;;;;;;5.50;3.53;;;-0.60;99.90;;;;;;5096117;27;20251;-44
2022/03/09 05:02:12;;;;;;;10.50;4.23;;;-0.60;99.90;;;;;;5099129;27;20232;-47
2022/03/09 05:04:39;;;;;;;5.77;3.53;;;-0.60;99.90;;;;;;5089745;28;20913;-45
2022/03/09 05:07:05;;;;;;;5.60;4.23;;;-0.60;99.90;;;;;;5084740;27;20697;-44
2022/03/09 05:09:32;;;;;;;6.07;3.60;;;-0.60;99.90;;;;;;5092826;27;20189;-44
2022/03/09 05:12:00;;;;;;;5.97;4.17;;;-0.70;99.90;;;;;;5094952;27;20287;-45
2022/03/09 05:14:28;;;;;;;4.57;4.17;;;-0.60;99.90;;;;;;5099677;27;20197;-45
2022/03/09 05:16:55;;;;;;;6.07;4.40;;;-0.60;99.90;;;;;;5105133;27;20205;-43
2022/03/09 05:19:22;;;;;;;4.83;3.70;;;-0.60;99.90;;;;;;5091602;28;20209;-43
2022/03/09 05:21:49;;;;;;;6.60;4.23;;;-0.60;99.90;;;;;;5085898;28;20225;-43
2022/03/09 05:24:16;;;;;;;5.33;3.77;;;-0.60;99.90;;;;;;5101386;28;20189;-43
2022/03/09 05:26:46;;;;;;;4.63;3.80;;;-0.60;99.90;;;;;;5099715;28;20213;-43
2022/03/09 05:29:13;;;;;;;4.93;3.23;;;-0.70;99.90;;;;;;5102295;28;20661;-43
2022/03/09 05:31:41;;;;;;;5.33;3.80;;;-0.70;99.90;;;;;;5100847;28;20227;-44
2022/03/09 05:34:08;;;;;;;5.60;3.60;;;-0.80;99.90;;;;;;5102891;28;20204;-43
2022/03/09 05:36:37;;;;;;;8.73;4.10;;;-0.80;99.90;;;;;;5079254;28;20205;-44
2022/03/09 05:39:04;;;;;;;6.93;3.73;;;-0.80;99.90;;;;;;5102494;28;20224;-43
2022/03/09 05:41:54;;;;;;;3.73;3.40;;;-0.80;99.90;;;;;;5102448;28;20374;-42
2022/03/09 05:44:20;;;;;;;8.10;3.80;;;-0.80;99.90;;;;;;5099992;28;20209;-41
2022/03/09 05:46:48;;;;;;;7.27;3.67;;;-0.80;99.90;;;;;;5100126;28;20209;-45
2022/03/09 05:49:15;;;;;;;5.03;3.87;;;-0.80;99.90;;;;;;5099569;28;20213;-41
2022/03/09 05:51:42;;;;;;;6.63;4.07;;;-0.90;99.90;;;;;;5082414;28;21768;-41
2022/03/09 05:54:09;;;;;;;4.83;3.50;;;-0.80;99.90;;;;;;5100124;28;20193;-40
2022/03/09 05:56:36;;;;;;;5.83;3.90;;;-0.80;99.90;;;;;;5099378;28;20189;-43
2022/03/09 05:59:02;;;;;;;4.93;3.93;;;-0.80;99.90;;;;;;5103368;28;20716;-45
2022/03/09 06:01:29;;;;;;;4.43;3.77;;;-0.80;99.90;;;;;;5097980;28;20205;-42
2022/03/09 06:03:57;;;;;;;5.57;3.87;;;-0.80;99.90;;;;;;5102455;28;20201;-43
2022/03/09 06:06:24;;;;;;;5.50;3.87;;;-0.90;99.90;;;;;;5080676;28;20307;-40
2022/03/09 06:08:52;;;;;;;6.50;3.83;;;-0.90;99.90;;;;;;5102352;28;20201;-41
2022/03/09 06:11:19;;;;;;;8.77;4.73;;;-0.90;99.90;;;;;;5100277;28;20202;-45
2022/03/09 06:13:47;;;;;;;5.60;4.17;;;-0.90;99.90;;;;;;5100635;28;20303;-43
2022/03/09 06:16:14;;;;;;;9.57;4.60;;;-0.90;99.90;;;;;;5100694;28;20197;-42
2022/03/09 06:18:41;;;;;;;4.67;3.67;;;-0.90;99.90;;;;;;5101627;28;20228;-41
2022/03/09 06:21:09;;;;;;;6.30;3.90;;;-0.80;99.90;;;;;;5098162;28;20205;-42
2022/03/09 06:23:36;;;;;;;8.47;4.50;;;-0.80;99.90;;;;;;5089990;28;20296;-43
2022/03/09 06:26:03;;;;;;;6.77;3.83;;;-0.80;99.90;;;;;;5100125;28;20209;-41
2022/03/09 06:28:30;;;;;;;6.23;3.83;;;-0.80;99.90;;;;;;5101008;28;20189;-42
2022/03/09 06:30:58;;;;;;;9.50;4.17;;;-0.80;99.90;;;;;;5105463;28;20190;-43
2022/03/09 06:33:25;;;;;;;4.87;4.00;;;-0.80;99.90;;;;;;5102397;28;20259;-43
2022/03/09 06:35:52;;;;;;;10.37;4.20;;;-0.80;99.90;;;;;;5106148;28;20189;-46
2022/03/09 06:38:20;;;;;;;5.63;3.77;;;-0.70;99.90;;;;;;5081268;28;20205;-44
2022/03/09 06:40:48;;;;;;;6.07;3.87;;;-0.70;99.90;;;;;;5106098;28;20198;-41
2022/03/09 06:43:15;;;;;;;9.40;4.70;;;-0.70;99.90;;;;;;5095911;28;20221;-41
2022/03/09 06:45:42;;;;;;;7.73;4.03;;;-0.60;99.90;;;;;;5105888;28;20304;-42
2022/03/09 06:48:08;;;;;;;6.73;4.23;;;-0.50;99.90;;;;;;5101691;28;20606;-40
2022/03/09 06:50:36;;;;;;;5.93;3.87;;;-0.40;99.90;;;;;;5105933;28;20225;-43
2022/03/09 06:53:02;;;;;;;6.53;5.13;;;-0.40;99.90;;;;;;5087852;28;20244;-42
2022/03/09 06:55:30;;;;;;;7.40;3.57;;;-0.30;99.90;;;;;;5098116;28;20200;-45
2022/03/09 06:57:57;;;;;;;6.13;4.20;;;-0.20;99.90;;;;;;5096916;28;20228;-43
2022/03/09 07:00:24;;;;;;;6.90;4.17;;;-0.10;99.90;;;;;;5102901;28;20204;-42
2022/03/09 07:02:50;;;;;;;6.97;4.17;;;0.10;99.90;;;;;;5104508;28;20213;-41
2022/03/09 07:05:18;;;;;;;5.23;4.30;;;0.20;99.90;;;;;;5097815;28;20243;-43
2022/03/09 07:07:45;;;;;;;4.90;4.10;;;0.40;99.90;;;;;;5098358;28;20288;-41
2022/03/09 07:10:13;;;;;;;7.03;4.40;;;0.50;99.90;;;;;;5087371;28;20205;-41
2022/03/09 07:12:44;;;;;;;5.83;3.80;;;0.60;99.90;;;;;;5106005;27;20229;-40
2022/03/09 07:15:11;;;;;;;7.27;4.00;;;0.80;99.90;;;;;;5095170;28;20577;-41
2022/03/09 07:17:40;;;;;;;6.57;4.07;;;0.90;99.90;;;;;;5099995;28;20204;-41
2022/03/09 07:20:08;;;;;;;7.70;4.57;;;1.00;99.90;;;;;;5103020;28;20220;-40
2022/03/09 07:22:35;;;;;;;15.47;8.47;;;1.20;99.90;;;;;;5100759;28;20218;-44
2022/03/09 07:25:01;;;;;;;31.87;13.47;;;1.40;99.90;;;;;;5083654;28;20285;-45
2022/03/09 07:27:28;;;;;;;6.07;4.13;;;1.50;99.90;;;;;;5104917;28;20588;-41
2022/03/09 07:29:58;;;;;;;4.20;3.80;;;1.60;99.90;;;;;;5100993;28;20204;-43
2022/03/09 07:32:25;;;;;;;5.70;3.83;;;1.70;99.90;;;;;;5105379;28;20218;-41
2022/03/09 07:34:52;;;;;;;6.17;4.20;;;1.90;99.90;;;;;;5101113;28;20190;-39
2022/03/09 07:37:19;;;;;;;6.47;4.23;;;2.00;99.90;;;;;;5104764;28;20198;-39
2022/03/09 07:39:46;;;;;;;7.53;4.10;;;2.20;99.90;;;;;;5081333;28;20211;-40
2022/03/09 07:42:12;;;;;;;5.97;4.20;;;2.20;99.90;;;;;;5102903;28;20222;-39
2022/03/09 07:44:39;;;;;;;4.83;4.30;;;2.30;99.90;;;;;;5087589;28;20206;-40
2022/03/09 07:47:27;;;;;;;5.73;4.10;;;2.40;99.90;;;;;;5102651;27;20266;-38
2022/03/09 07:49:54;;;;;;;4.77;3.90;;;2.60;99.90;;;;;;5090390;28;20201;-39
2022/03/09 07:52:21;;;;;;;5.43;4.30;;;2.70;99.90;;;;;;5104195;28;20224;-40
2022/03/09 07:54:48;;;;;;;5.63;4.37;;;2.90;99.90;;;;;;5090236;28;20836;-39
2022/03/09 07:57:14;;;;;;;4.00;3.63;;;3.00;99.90;;;;;;5088458;28;20211;-39
2022/03/09 07:59:41;;;;;;;4.90;3.57;;;3.10;99.90;;;;;;5101471;28;20204;-40
2022/03/09 08:02:08;;;;;;;5.87;4.27;;;3.30;99.90;;;;;;5097344;28;20226;-41
2022/03/09 08:04:36;;;;;;;12.00;5.67;;;3.40;99.90;;;;;;5100254;28;20570;-39
2022/03/09 08:07:03;;;;;;;5.23;4.13;;;3.50;99.90;;;;;;5097644;28;20208;-40
2022/03/09 08:09:30;;;;;;;5.70;3.80;;;3.60;99.90;;;;;;5103036;28;20212;-39
2022/03/09 08:11:57;;;;;;;9.77;4.10;;;3.80;99.90;;;;;;5079707;28;20231;-40
2022/03/09 08:14:23;;;;;;;4.70;3.50;;;3.90;99.90;;;;;;5103938;28;20691;-39
2022/03/09 08:16:50;;;;;;;5.20;3.90;;;4.00;99.90;;;;;;5092764;28;20189;-40
2022/03/09 08:19:17;;;;;;;4.83;3.50;;;4.10;99.90;;;;;;5105083;27;20215;-48
2022/03/09 08:21:45;;;;;;;8.43;3.60;;;4.20;99.90;;;;;;5093449;28;20220;-48
2022/03/09 08:24:11;;;;;;;6.87;3.80;;;4.40;99.90;;;;;;5099129;28;20207;-47
2022/03/09 08:26:38;;;;;;;8.33;3.40;;;4.50;99.90;;;;;;5096004;28;20224;-38
2022/03/09 08:29:05;;;;;;;4.37;3.33;;;4.60;99.90;;;;;;5085165;28;20224;-40
2022/03/09 08:31:32;;;;;;;4.77;3.73;;;4.70;99.90;;;;;;5084636;28;20705;-39
2022/03/09 08:34:01;;;;;;;3.93;3.20;;;4.90;99.90;;;;;;5098317;28;20196;-39
2022/03/09 08:36:28;;;;;;;4.27;3.87;;;4.90;99.90;;;;;;5096473;28;20201;-38
2022/03/09 08:38:56;;;;;;;6.47;3.50;;;5.00;99.90;;;;;;5097714;28;20189;-39
2022/03/09 08:41:25;;;;;;;3.87;3.00;;;5.10;99.90;;;;;;5096615;28;20205;-39
2022/03/09 08:43:52;;;;;;;3.43;2.90;;;5.20;99.90;;;;;;5085551;28;20227;-48
2022/03/09 08:46:19;;;;;;;5.67;2.90;;;5.40;99.90;;;;;;5101866;28;20818;-43
2022/03/09 08:48:46;;;;;;;7.23;3.07;;;5.40;99.90;;;;;;5093836;28;20337;-48
2022/03/09 08:51:14;;;;;;;3.33;3.00;;;5.50;99.90;;;;;;5103422;28;20293;-47
2022/03/09 08:53:41;;;;;;;4.40;3.40;;;5.60;99.90;;;;;;5093913;28;20221;-47
2022/03/09 08:56:10;;;;;;;3.53;3.10;;;5.70;99.90;;;;;;5097773;28;20221;-45
2022/03/09 08:58:37;;;;;;;6.33;3.20;;;5.80;99.90;;;;;;5077855;28;20565;-56
2022/03/09 09:01:04;;;;;;;8.27;3.43;;;6.00;99.90;;;;;;5100107;28;20198;-49
2022/03/09 09:03:33;;;;;;;3.70;2.97;;;6.00;99.90;;;;;;5093907;28;20256;-54
2022/03/09 09:06:01;;;;;;;3.63;2.93;;;6.10;99.90;;;;;;5101222;28;20928;-47
2022/03/09 09:08:28;;;;;;;4.57;3.20;;;6.20;99.90;;;;;;5095715;28;20201;-41
2022/03/09 09:10:54;;;;;;;3.83;3.23;;;6.30;99.90;;;;;;5101356;28;20388;-39
2022/03/09 09:13:23;;;;;;;7.43;4.80;;;6.40;99.90;;;;;;5095872;28;20240;-41
2022/03/09 09:15:49;;;;;;;3.93;2.87;;;6.50;99.90;;;;;;5086252;28;20200;-43
2022/03/09 09:18:16;;;;;;;5.17;3.53;;;6.60;99.90;;;;;;5102666;28;20546;-39
2022/03/09 09:20:43;;;;;;;4.90;3.30;;;6.70;99.90;;;;;;5089113;28;20193;-39
2022/03/09 09:23:09;;;;;;;11.73;3.43;;;6.70;99.90;;;;;;5095530;28;20221;-40
2022/03/09 09:25:37;;;;;;;7.17;3.40;;;6.80;99.90;;;;;;5094012;28;20190;-42
2022/03/09 09:28:04;;;;;;;4.00;3.17;;;6.90;99.90;;;;;;5083723;28;20291;-44
2022/03/09 09:30:32;;;;;;;6.30;5.57;;;7.00;99.90;;;;;;5084481;28;20728;-40
2022/03/09 09:33:00;;;;;;;4.00;3.27;;;7.20;99.90;;;;;;5086641;28;20327;-39
2022/03/09 09:35:28;;;;;;;4.20;3.13;;;7.30;99.90;;;;;;5101862;28;20193;-42
2022/03/09 09:37:54;;;;;;;4.30;3.17;;;7.40;99.90;;;;;;5099840;28;20201;-39
2022/03/09 09:40:21;;;;;;;4.50;3.03;;;7.50;99.90;;;;;;5096510;28;20205;-40
2022/03/09 09:42:49;;;;;;;4.10;3.60;;;7.50;99.90;;;;;;5099110;28;20311;-40
2022/03/09 09:45:16;;;;;;;5.10;3.50;;;7.60;99.90;;;;;;5080833;28;20571;-41
2022/03/09 09:47:45;;;;;;;7.40;3.47;;;7.70;99.90;;;;;;5098529;27;20228;-41
2022/03/09 09:50:14;;;;;;;3.63;3.33;;;7.80;99.20;;;;;;5103482;28;20201;-42
2022/03/09 09:52:42;;;;;;;3.33;3.03;;;7.90;98.70;;;;;;5093990;28;20231;-41
2022/03/09 09:55:09;;;;;;;3.37;3.07;;;7.90;98.60;;;;;;5096322;28;20666;-43
2022/03/09 09:57:36;;;;;;;6.13;3.57;;;8.00;98.80;;;;;;5094084;28;20197;-44
2022/03/09 10:00:06;;;;;;;6.40;3.30;;;8.10;98.60;;;;;;5080046;28;20201;-39
2022/03/09 10:02:41;;;;;;;9.23;3.83;;;8.00;98.50;;;;;;5099842;28;20590;-39
2022/03/09 10:05:11;;;;;;;4.10;3.47;;;8.10;97.80;;;;;;5102504;28;20222;-39
2022/03/09 10:08:08;;;;;;;5.47;3.73;;;8.20;97.50;;;;;;5093500;28;20220;-41
2022/03/09 10:10:38;;;;;;;7.80;4.00;;;8.40;94.20;;;;;;5093969;28;20205;-40
2022/03/09 10:13:12;;;;;;;5.10;3.33;;;8.50;95.40;;;;;;5096550;28;20236;-40
2022/03/09 10:15:40;;;;;;;3.83;3.43;;;8.60;95.70;;;;;;5084770;28;20204;-41
2022/03/09 10:18:14;;;;;;;5.20;3.60;;;8.70;95.20;;;;;;5102194;28;20549;-41
2022/03/09 10:20:42;;;;;;;5.13;3.70;;;8.90;93.10;;;;;;5099141;28;20197;-40
2022/03/09 10:23:09;;;;;;;4.93;3.43;;;9.10;93.00;;;;;;5096365;28;20714;-40
2022/03/09 10:25:38;;;;;;;5.03;3.33;;;9.10;92.60;;;;;;5096224;28;20224;-41
2022/03/09 10:28:07;;;;;;;4.43;3.50;;;9.10;93.10;;;;;;5085315;28;20897;-41
2022/03/09 10:30:36;;;;;;;7.30;3.60;;;9.10;92.80;;;;;;5081940;28;20433;-41
2022/03/09 10:33:05;;;;;;;3.80;3.40;;;9.20;92.60;;;;;;5094873;28;20232;-41
2022/03/09 10:35:44;;;;;;;5.23;4.03;;;9.30;92.00;;;;;;5100738;28;20200;-40
2022/03/09 10:38:28;;;;;;;7.13;3.20;;;9.40;91.00;;;;;;5098999;28;20199;-40
2022/03/09 10:40:56;;;;;;;4.23;3.47;;;9.30;90.70;;;;;;5100818;28;20216;-41
2022/03/09 10:43:25;;;;;;;6.43;3.73;;;9.50;90.30;;;;;;5092585;28;20221;-43
2022/03/09 10:46:07;;;;;;;3.43;3.10;;;9.70;89.60;;;;;;5088083;28;20201;-41
2022/03/09 10:48:58;;;;;;;5.53;3.57;;;9.80;83.60;;;;;;5089027;28;20209;-42
2022/03/09 10:51:31;;;;;;;4.33;3.30;;;9.80;82.40;;;;;;5095832;28;20955;-40
2022/03/09 10:54:00;;;;;;;4.13;3.00;;;9.90;80.70;;;;;;5091565;28;20193;-44
2022/03/09 10:56:26;;;;;;;6.33;3.43;;;10.00;82.80;;;;;;5099462;28;20201;-42
2022/03/09 10:58:54;;;;;;;4.27;3.43;;;10.00;82.60;;;;;;5095297;28;20197;-43
2022/03/09 11:01:23;;;;;;;6.83;3.63;;;10.10;80.30;;;;;;5087783;28;20209;-40
2022/03/09 11:03:50;;;;;;;4.37;3.30;;;10.10;79.90;;;;;;5093630;28;20194;-42
2022/03/09 11:06:17;;;;;;;5.77;3.23;;;10.20;78.60;;;;;;5105782;28;20232;-42
2022/03/09 11:08:45;;;;;;;4.60;3.23;;;10.20;79.20;;;;;;5101901;28;20213;-43
2022/03/09 11:11:14;;;;;;;3.73;3.40;;;10.20;80.30;;;;;;5106574;28;20227;-45
2022/03/09 11:13:42;;;;;;;5.80;3.43;;;10.30;79.70;;;;;;5093607;28;20204;-41
2022/03/09 11:16:09;;;;;;;4.50;4.07;;;10.40;78.00;;;;;;5105089;28;20197;-40
2022/03/09 11:18:37;;;;;;;6.03;3.47;;;10.40;76.80;;;;;;5084564;28;20233;-41
2022/03/09 11:21:05;;;;;;;4.13;3.07;;;10.50;77.30;;;;;;5103939;28;20209;-41
2022/03/09 11:23:35;;;;;;;4.50;3.23;;;10.50;78.00;;;;;;5103012;28;20718;-43
2022/03/09 11:26:09;;;;;;;4.10;3.70;;;10.50;77.20;;;;;;5104111;28;20197;-38
2022/03/09 11:28:39;;;;;;;5.00;3.17;;;10.60;75.50;;;;;;5097127;28;20213;-40
2022/03/09 11:31:08;;;;;;;7.30;3.70;;;10.70;75.30;;;;;;5105315;28;20205;-41
2022/03/09 11:33:38;;;;;;;3.40;3.10;;;10.80;74.50;;;;;;5078643;28;20221;-41
2022/03/09 11:36:36;;;;;;;4.77;3.57;;;10.90;72.80;;;;;;5103316;28;20209;-43
2022/03/09 11:39:21;;;;;;;6.03;3.60;;;10.90;70.70;;;;;;5103304;28;20566;-39
2022/03/09 11:41:50;;;;;;;5.47;3.97;;;10.90;72.10;;;;;;5093015;28;20627;-38
2022/03/09 11:44:30;;;;;;;5.03;3.30;;;11.00;72.40;;;;;;5081634;28;20210;-40
2022/03/09 11:47:07;;;;;;;4.80;3.83;;;11.00;70.40;;;;;;5101845;28;20227;-40
2022/03/09 11:50:07;;;;;;;4.33;3.57;;;11.00;70.40;;;;;;5080926;28;20204;-40
2022/03/09 11:52:34;;;;;;;4.50;3.20;;;11.10;70.90;;;;;;5096173;27;20694;-37
2022/03/09 11:55:02;;;;;;;4.30;3.60;;;11.20;68.60;;;;;;5085967;27;20200;-37
2022/03/09 11:57:58;;;;;;;4.97;3.63;;;11.20;69.30;;;;;;5103633;28;20206;-37
2022/03/09 12:00:27;;;;;;;6.77;4.27;;;11.30;67.40;;;;;;5100899;28;20732;-37
2022/03/09 12:02:56;;;;;;;5.10;3.70;;;11.30;68.50;;;;;;5095402;28;20296;-39
2022/03/09 12:05:40;;;;;;;4.00;3.57;;;11.40;68.30;;;;;;5089133;28;20228;-47
2022/03/09 12:08:09;;;;;;;4.30;3.37;;;11.50;66.70;;;;;;5100030;28;20309;-38
2022/03/09 12:10:59;;;;;;;3.77;3.30;;;11.50;66.80;;;;;;5104533;28;20262;-38
2022/03/09 12:13:35;;;;;;;4.70;3.73;;;11.60;62.50;;;;;;5099396;27;20221;-38
2022/03/09 12:16:17;;;;;;;4.10;3.67;;;11.70;63.90;;;;;;5091786;28;20484;-41
2022/03/09 12:19:06;;;;;;;3.97;3.63;;;11.60;62.60;;;;;;5087877;28;20221;-38
2022/03/09 12:22:03;;;;;;;4.50;3.93;;;11.60;63.80;;;;;;5089917;28;20250;-38
2022/03/09 12:24:33;;;;;;;4.10;3.70;;;11.70;60.90;;;;;;5095535;28;20264;-38
2022/03/09 12:27:01;;;;;;;4.20;3.80;;;11.80;61.10;;;;;;5098127;28;20284;-48
2022/03/09 12:29:40;;;;;;;5.63;4.20;;;11.80;60.70;;;;;;5097182;28;20669;-48
2022/03/09 12:32:11;;;;;;;4.63;3.83;;;11.80;60.30;;;;;;5099839;28;20303;-48
2022/03/09 12:34:41;;;;;;;4.00;3.70;;;11.90;61.80;;;;;;5097177;28;20228;-48
2022/03/09 12:37:10;;;;;;;7.00;3.50;;;11.90;61.80;;;;;;5083384;28;20267;-48
2022/03/09 12:39:37;;;;;;;4.03;3.63;;;12.00;61.10;;;;;;5102989;28;20189;-48
2022/03/09 12:42:05;;;;;;;4.03;3.63;;;12.00;61.90;;;;;;5099208;28;20338;-48
2022/03/09 12:44:34;;;;;;;5.73;4.10;;;12.10;61.20;;;;;;5102556;28;20193;-48
2022/03/09 12:47:05;;;;;;;4.60;3.80;;;12.10;59.90;;;;;;5093408;28;20284;-48
2022/03/09 12:49:35;;;;;;;5.00;3.93;;;12.10;61.80;;;;;;5096063;28;20205;-48
2022/03/09 12:52:08;;;;;;;5.20;3.90;;;12.20;59.20;;;;;;5081591;28;20221;-48
2022/03/09 12:54:46;;;;;;;4.23;3.83;;;12.20;58.20;;;;;;5101633;28;20204;-48
2022/03/09 12:57:23;;;;;;;5.10;4.07;;;12.20;58.00;;;;;;5100840;28;20189;-48
2022/03/09 12:59:59;;;;;;;5.43;4.07;;;12.30;58.90;;;;;;5094410;28;20277;-48
2022/03/09 13:02:26;;;;;;;5.10;3.97;;;12.30;66.30;;;;;;5092987;28;20236;-48